Time;durP1;ratioP1;P1;durP2;ratioP2;P2;SDS_P1;SDS_P2;PMS_P1;PMS_P2;Temp;Humidity;BMP_temperature;BMP_pressure;BME280_temperature;BME280_humidity;BME280_pressure;Samples;Min_cycle;Max_cycle;Signal;HPM_P1;HPM_P2
2022/03/05 00:03:50;;;;;;;26.75;11.20;;;1.10;99.90;;;;;;20819586;28;20033;-72
2022/03/05 00:13:51;;;;;;;24.70;9.88;;;0.70;99.90;;;;;;20833683;28;20193;-71
2022/03/05 00:23:51;;;;;;;23.15;11.00;;;0.60;99.90;;;;;;20834376;28;20068;-71
2022/03/05 00:33:52;;;;;;;28.35;12.68;;;0.20;99.90;;;;;;20833264;28;20091;-70
2022/03/05 00:43:53;;;;;;;31.98;11.30;;;-0.10;99.90;;;;;;20832528;28;20059;-71
2022/03/05 00:53:54;;;;;;;25.15;9.68;;;-0.60;99.90;;;;;;20831806;28;20021;-71
2022/03/05 01:03:54;;;;;;;27.15;9.93;;;-0.10;99.90;;;;;;20831066;28;20029;-72
2022/03/05 01:13:55;;;;;;;22.90;9.63;;;0.40;99.90;;;;;;20830446;28;20107;-72
2022/03/05 01:23:56;;;;;;;21.40;9.32;;;0.50;99.90;;;;;;20829248;28;20559;-71
2022/03/05 01:33:57;;;;;;;24.42;9.10;;;0.20;99.90;;;;;;20828880;28;20087;-73
2022/03/05 01:43:58;;;;;;;28.92;11.05;;;0.00;99.90;;;;;;20828002;28;20037;-72
2022/03/05 01:53:59;;;;;;;25.25;11.23;;;-0.60;99.90;;;;;;20826669;28;20033;-73
2022/03/05 02:04:00;;;;;;;27.33;10.77;;;-0.40;99.90;;;;;;20826656;28;20037;-73
2022/03/05 02:14:01;;;;;;;20.63;9.18;;;-0.70;99.90;;;;;;20825917;28;20037;-72
2022/03/05 02:24:03;;;;;;;26.25;10.43;;;-0.80;99.90;;;;;;20825435;28;20033;-73
2022/03/05 02:34:04;;;;;;;24.25;9.98;;;-1.00;99.90;;;;;;20824705;28;20079;-72
2022/03/05 02:44:05;;;;;;;25.33;9.95;;;-1.40;99.90;;;;;;20824789;28;20428;-71
2022/03/05 02:54:06;;;;;;;25.27;9.85;;;-1.20;99.90;;;;;;20824008;28;20116;-72
2022/03/05 03:04:07;;;;;;;19.48;8.80;;;-1.60;99.90;;;;;;20833143;28;20424;-73
2022/03/05 03:14:07;;;;;;;25.83;9.10;;;-1.60;99.90;;;;;;20839697;28;20030;-71
2022/03/05 03:24:09;;;;;;;23.30;9.98;;;-1.80;99.90;;;;;;20839078;28;20590;-73
2022/03/05 03:34:10;;;;;;;24.88;9.82;;;-2.10;99.90;;;;;;20838073;28;20060;-72
2022/03/05 03:44:10;;;;;;;29.60;12.02;;;-1.70;99.90;;;;;;20836559;28;20052;-74
2022/03/05 03:54:11;;;;;;;27.38;10.20;;;-1.40;99.90;;;;;;20836495;28;20033;-72
2022/03/05 04:04:12;;;;;;;26.75;9.52;;;-1.40;99.90;;;;;;20835743;28;20033;-73
2022/03/05 04:14:13;;;;;;;25.25;9.93;;;-1.30;99.90;;;;;;20816733;28;20503;-72
2022/03/05 04:24:13;;;;;;;24.38;10.52;;;-1.50;99.90;;;;;;20834356;28;20100;-73
2022/03/05 04:34:15;;;;;;;22.73;9.65;;;-1.80;99.90;;;;;;20833442;28;20037;-72
2022/03/05 04:44:16;;;;;;;27.15;10.32;;;-2.00;99.90;;;;;;20832949;28;20491;-72
2022/03/05 04:54:17;;;;;;;22.75;9.45;;;-2.10;99.90;;;;;;20831979;28;20055;-73
2022/03/05 05:04:18;;;;;;;24.20;9.85;;;-2.60;99.90;;;;;;20831338;28;20040;-72
2022/03/05 05:14:19;;;;;;;31.48;11.77;;;-3.40;99.90;;;;;;20830312;28;20025;-72
2022/03/05 05:24:20;;;;;;;23.85;10.02;;;-3.10;99.90;;;;;;20828710;28;20551;-73
2022/03/05 05:34:22;;;;;;;20.23;9.70;;;-2.70;99.90;;;;;;20828628;28;20106;-72
2022/03/05 05:44:22;;;;;;;18.80;8.65;;;-2.70;99.90;;;;;;20828188;28;20045;-73
2022/03/05 05:54:23;;;;;;;19.75;7.85;;;-2.70;99.90;;;;;;20827307;28;20025;-73
2022/03/05 06:04:24;;;;;;;20.00;7.95;;;-2.40;99.90;;;;;;20769762;28;20069;-73
2022/03/05 06:14:25;;;;;;;21.55;8.85;;;-2.40;99.90;;;;;;20818098;28;20026;-72
2022/03/05 06:24:26;;;;;;;26.60;8.30;;;-2.40;99.90;;;;;;20799572;28;20029;-72
2022/03/05 06:34:27;;;;;;;16.52;7.32;;;-2.40;99.90;;;;;;20781851;28;20033;-72
2022/03/05 06:44:28;;;;;;;24.67;10.10;;;-2.00;99.90;;;;;;20776952;28;20037;-72
2022/03/05 06:54:29;;;;;;;32.40;10.80;;;-1.60;99.90;;;;;;20745330;28;20077;-72
2022/03/05 07:04:30;;;;;;;26.63;10.45;;;-0.70;99.90;;;;;;20742360;28;20030;-71
2022/03/05 07:14:31;;;;;;;43.38;24.20;;;0.40;99.90;;;;;;20724191;28;20088;-73
2022/03/05 07:24:32;;;;;;;29.48;16.08;;;1.50;99.90;;;;;;20741734;28;20038;-74
2022/03/05 07:34:32;;;;;;;24.10;11.20;;;3.70;99.90;;;;;;20743237;28;20045;-73
2022/03/05 07:44:33;;;;;;;21.13;10.33;;;4.00;99.90;;;;;;20742827;28;20049;-73
2022/03/05 07:54:34;;;;;;;22.40;8.83;;;4.10;99.90;;;;;;20764482;28;20316;-73
2022/03/05 08:04:35;;;;;;;25.73;11.57;;;4.80;99.90;;;;;;20754959;28;20038;-73
2022/03/05 08:14:38;;;;;;;18.73;8.37;;;5.10;99.90;;;;;;20754118;28;20041;-73
2022/03/05 08:24:38;;;;;;;17.77;8.18;;;5.50;99.90;;;;;;20753259;28;20026;-73
2022/03/05 08:34:39;;;;;;;19.33;8.47;;;4.80;99.90;;;;;;20751060;28;20037;-73
2022/03/05 08:44:41;;;;;;;15.27;7.07;;;6.10;99.90;;;;;;20751845;28;20028;-74
2022/03/05 08:54:42;;;;;;;;;;;7.00;99.90;;;;;;20751467;28;20022;-74
2022/03/05 09:04:43;;;;;;;13.27;6.55;;;8.10;99.90;;;;;;20752005;28;19920;-75
2022/03/05 09:14:46;;;;;;;11.90;6.47;;;7.00;99.90;;;;;;20749505;28;20115;-76
2022/03/05 09:24:47;;;;;;;14.93;6.30;;;8.40;99.90;;;;;;20730702;28;20033;-76
2022/03/05 09:34:48;;;;;;;13.63;6.53;;;8.90;98.70;;;;;;20765423;28;20037;-75
2022/03/05 09:44:49;;;;;;;20.70;6.97;;;9.30;97.20;;;;;;20790183;28;20029;-74
2022/03/05 09:54:50;;;;;;;17.88;7.55;;;9.40;95.10;;;;;;20807041;28;20098;-75
2022/03/05 10:04:51;;;;;;;15.93;7.77;;;10.20;95.40;;;;;;20770563;28;20547;-75
2022/03/05 10:15:12;;;;;;;15.10;7.30;;;9.60;94.60;;;;;;20804449;28;20084;-75
2022/03/05 10:25:13;;;;;;;14.25;7.65;;;10.70;93.00;;;;;;20810198;28;20124;-75
2022/03/05 10:35:18;;;;;;;20.67;8.50;;;11.10;92.40;;;;;;20805064;28;20407;-75
2022/03/05 10:45:19;;;;;;;14.60;8.02;;;11.60;92.70;;;;;;20774375;28;20037;-75
2022/03/05 10:55:23;;;;;;;15.13;6.83;;;11.90;88.90;;;;;;20808190;28;20037;-75
2022/03/05 11:05:24;;;;;;;14.13;7.68;;;11.80;91.20;;;;;;20794024;28;20167;-76
2022/03/05 11:15:26;;;;;;;17.00;8.57;;;11.90;90.80;;;;;;20749166;28;20524;-77
2022/03/05 11:25:28;;;;;;;15.73;8.25;;;12.80;86.30;;;;;;20806892;28;20036;-76
2022/03/05 11:35:29;;;;;;;16.17;8.53;;;11.80;85.30;;;;;;20819097;28;20152;-77
2022/03/05 11:45:32;;;;;;;13.93;8.23;;;11.90;88.70;;;;;;20857970;28;20116;-77
2022/03/05 11:55:38;;;;;;;15.00;7.63;;;12.60;86.80;;;;;;20805909;28;20053;-76
2022/03/05 12:05:41;;;;;;;14.63;7.38;;;12.40;83.50;;;;;;20826606;28;20065;-76
2022/03/05 12:15:44;;;;;;;16.58;9.02;;;12.10;82.00;;;;;;20868040;28;20157;-79
2022/03/05 12:25:47;;;;;;;16.08;7.70;;;13.30;78.50;;;;;;20840520;28;20037;-77
2022/03/05 12:35:48;;;;;;;13.63;7.38;;;13.30;77.50;;;;;;20791178;28;20041;-74
2022/03/05 12:45:50;;;;;;;14.93;8.40;;;13.60;76.50;;;;;;20807249;28;20511;-76
2022/03/05 12:55:52;;;;;;;14.68;7.10;;;12.40;76.40;;;;;;20753187;28;20090;-75
2022/03/05 13:05:55;;;;;;;13.55;7.65;;;12.40;76.00;;;;;;20818655;28;20036;-75
2022/03/05 13:15:56;;;;;;;13.20;6.70;;;14.10;73.90;;;;;;20831692;28;20048;-75
2022/03/05 13:25:57;;;;;;;15.33;8.03;;;13.00;77.70;;;;;;20810104;28;20025;-75
2022/03/05 13:35:58;;;;;;;12.03;7.57;;;12.20;75.60;;;;;;20941589;22;20453;-77
2022/03/05 13:45:59;;;;;;;29.77;9.30;;;12.10;78.80;;;;;;21083564;28;20052;-77
2022/03/05 13:56:02;;;;;;;17.37;8.50;;;12.80;74.00;;;;;;21051166;28;20035;-77
2022/03/05 14:06:12;;;;;;;12.85;7.20;;;13.00;74.30;;;;;;21035560;28;20069;-76
2022/03/05 14:16:33;;;;;;;13.77;6.85;;;13.60;73.10;;;;;;20965477;28;20025;-76
2022/03/05 14:26:34;;;;;;;13.88;7.47;;;13.00;72.70;;;;;;21019338;28;20647;-75
2022/03/05 14:36:35;;;;;;;;;;;13.00;71.60;;;;;;21031794;28;20029;-76
2022/03/05 14:46:38;;;;;;;16.80;7.87;;;12.50;73.00;;;;;;21003936;28;20010;-76
2022/03/05 14:56:39;;;;;;;13.23;7.30;;;12.80;73.30;;;;;;20997577;28;20286;-76
2022/03/05 15:06:40;;;;;;;13.07;6.20;;;12.40;71.30;;;;;;21006983;28;20386;-76
2022/03/05 15:16:41;;;;;;;38.07;19.63;;;12.00;72.70;;;;;;21010529;28;20046;-76
2022/03/05 15:26:42;;;;;;;12.67;7.20;;;12.10;72.30;;;;;;21006332;28;20056;-76
2022/03/05 15:36:43;;;;;;;14.60;7.50;;;11.30;75.00;;;;;;20997416;28;20424;-76
2022/03/05 15:46:44;;;;;;;17.33;7.90;;;11.10;75.60;;;;;;21000119;28;20117;-76
2022/03/05 15:56:45;;;;;;;18.13;9.10;;;11.20;75.10;;;;;;21004139;28;20087;-76
2022/03/05 16:06:46;;;;;;;15.93;9.27;;;10.50;77.30;;;;;;20983016;28;20033;-75
2022/03/05 16:16:47;;;;;;;20.00;9.53;;;9.30;80.90;;;;;;20974291;28;20029;-76
2022/03/05 16:26:48;;;;;;;16.03;8.90;;;9.10;82.40;;;;;;20979224;28;20040;-75
2022/03/05 16:36:48;;;;;;;23.07;9.47;;;8.60;85.10;;;;;;20997416;28;20116;-76
2022/03/05 16:46:49;;;;;;;19.93;9.93;;;8.00;85.10;;;;;;20994202;28;20023;-76
2022/03/05 16:56:50;;;;;;;19.83;9.73;;;8.00;83.90;;;;;;20997104;28;20067;-76
2022/03/05 17:06:53;;;;;;;27.53;10.40;;;7.20;87.80;;;;;;20991891;28;20107;-76
2022/03/05 17:16:53;;;;;;;19.70;10.60;;;6.90;90.70;;;;;;20986721;28;20433;-76
2022/03/05 17:26:54;;;;;;;21.20;9.80;;;6.40;91.40;;;;;;20982449;28;20031;-75
2022/03/05 17:36:55;;;;;;;17.50;9.13;;;5.50;93.00;;;;;;20989192;28;20032;-76
2022/03/05 17:47:00;;;;;;;17.77;7.97;;;5.00;94.10;;;;;;20977916;28;20040;-77
2022/03/05 17:57:01;;;;;;;19.25;7.93;;;4.80;93.60;;;;;;20966439;28;20029;-76
2022/03/05 18:07:03;;;;;;;14.75;6.80;;;4.90;93.30;;;;;;21005665;28;20890;-76
2022/03/05 18:17:04;;;;;;;14.90;7.15;;;4.50;93.40;;;;;;21010634;28;20119;-75
2022/03/05 18:27:06;;;;;;;18.67;8.57;;;4.40;93.40;;;;;;20970781;28;20086;-76
2022/03/05 18:37:07;;;;;;;26.08;9.93;;;4.20;94.30;;;;;;20981692;28;20513;-76
2022/03/05 18:47:08;;;;;;;46.22;21.50;;;3.70;96.30;;;;;;21030231;28;20024;-76
2022/03/05 18:57:10;;;;;;;30.92;11.43;;;3.30;97.10;;;;;;21017652;28;20173;-76
2022/03/05 19:07:11;;;;;;;25.85;11.27;;;2.90;98.80;;;;;;20931840;28;20126;-77
2022/03/05 19:17:11;;;;;;;;;;;2.70;99.60;;;;;;20980627;28;20060;-77
2022/03/05 19:27:12;;;;;;;24.50;10.48;;;2.50;99.90;;;;;;20960771;28;19916;-75
2022/03/05 19:37:13;;;;;;;;;;;2.40;99.90;;;;;;21016508;22;20043;-73
2022/03/05 19:47:14;;;;;;;23.10;11.30;;;2.20;99.90;;;;;;21081470;28;20539;-73
2022/03/05 19:57:15;;;;;;;24.40;11.10;;;2.00;99.90;;;;;;21067496;28;20028;-72
2022/03/05 20:07:16;;;;;;;18.63;9.10;;;1.80;99.90;;;;;;21085126;28;20058;-73
2022/03/05 20:17:17;;;;;;;30.83;11.98;;;1.80;99.90;;;;;;21065941;28;20481;-72
2022/03/05 20:27:18;;;;;;;30.50;9.13;;;1.60;99.90;;;;;;21083258;28;20109;-73
2022/03/05 20:37:19;;;;;;;23.55;9.80;;;1.20;99.90;;;;;;21082291;28;20028;-72
2022/03/05 20:47:20;;;;;;;23.45;9.30;;;1.20;99.90;;;;;;21081785;28;20042;-73
2022/03/05 20:57:21;;;;;;;23.13;9.68;;;0.90;99.90;;;;;;20994276;28;20036;-73
2022/03/05 21:07:23;;;;;;;18.33;8.00;;;1.30;99.90;;;;;;20996069;28;20432;-72
2022/03/05 21:17:24;;;;;;;22.27;9.95;;;1.10;99.90;;;;;;20977146;28;20040;-73
2022/03/05 21:27:25;;;;;;;17.55;7.93;;;0.50;99.90;;;;;;20994444;28;20032;-72
2022/03/05 21:37:26;;;;;;;21.45;9.15;;;0.40;99.90;;;;;;20993437;28;20588;-73
2022/03/05 21:47:27;;;;;;;20.05;9.50;;;0.30;99.90;;;;;;20994147;28;20035;-72
2022/03/05 21:57:27;;;;;;;19.55;9.48;;;0.50;99.90;;;;;;20974282;28;20463;-72
2022/03/05 22:07:28;;;;;;;26.10;9.23;;;0.60;99.90;;;;;;20990840;28;20020;-72
2022/03/05 22:17:30;;;;;;;23.13;8.57;;;0.40;99.90;;;;;;20990860;28;20028;-73
2022/03/05 22:27:31;;;;;;;22.52;9.25;;;0.50;99.90;;;;;;20990715;28;20501;-72
2022/03/05 22:37:32;;;;;;;19.27;9.10;;;0.30;99.90;;;;;;20990222;28;20028;-73
2022/03/05 22:47:32;;;;;;;18.92;8.77;;;0.00;99.90;;;;;;20990267;28;20037;-73
2022/03/05 22:57:33;;;;;;;22.50;8.85;;;-0.10;99.90;;;;;;20989536;28;20028;-72
2022/03/05 23:17:54;;;;;;;24.83;9.35;;;0.00;99.90;;;;;;20994462;28;20556;-72
2022/03/05 23:27:54;;;;;;;21.42;9.15;;;-0.10;99.90;;;;;;21004654;28;20363;-72
2022/03/05 23:37:55;;;;;;;20.50;9.25;;;0.00;99.90;;;;;;21003450;28;20024;-72
2022/03/05 23:47:56;;;;;;;23.92;9.90;;;-0.40;99.90;;;;;;21002766;28;20032;-72
2022/03/05 23:57:57;;;;;;;23.10;9.80;;;-0.80;99.90;;;;;;20984212;28;20070;-73
